Time;durP1;ratioP1;P1;durP2;ratioP2;P2;SDS_P1;SDS_P2;PMS_P1;PMS_P2;Temp;Humidity;BMP_temperature;BMP_pressure;BME280_temperature;BME280_humidity;BME280_pressure;Samples;Min_cycle;Max_cycle;Signal;HPM_P1;HPM_P2
2021/06/11 00:00:51;;;;;;;13.20;12.17;;;18.40;99.90;;;;;;4976833;28;20598;-68
2021/06/11 00:03:18;;;;;;;14.27;13.07;;;18.10;99.90;;;;;;4976861;28;20719;-68
2021/06/11 00:05:45;;;;;;;14.33;12.90;;;18.10;99.90;;;;;;4976618;28;21134;-68
2021/06/11 00:08:12;;;;;;;14.97;13.67;;;18.00;99.90;;;;;;4976488;28;20645;-68
2021/06/11 00:10:39;;;;;;;13.33;12.23;;;17.90;99.90;;;;;;4975019;28;20619;-68
2021/06/11 00:13:06;;;;;;;14.17;12.80;;;18.00;99.90;;;;;;4976515;28;21133;-68
2021/06/11 00:15:32;;;;;;;13.80;12.40;;;18.00;99.90;;;;;;4976466;28;21141;-68
2021/06/11 00:17:59;;;;;;;12.63;11.47;;;18.00;99.90;;;;;;4976648;28;20610;-68
2021/06/11 00:20:26;;;;;;;12.73;11.63;;;18.00;99.90;;;;;;4977658;28;20604;-68
2021/06/11 00:22:52;;;;;;;12.40;11.20;;;17.90;99.90;;;;;;4976343;28;20598;-68
2021/06/11 00:25:24;;;;;;;14.50;13.20;;;17.80;99.90;;;;;;4976378;28;20617;-68
2021/06/11 00:27:52;;;;;;;13.40;12.00;;;17.80;99.90;;;;;;4976784;28;20693;-68
2021/06/11 00:30:20;;;;;;;13.60;12.40;;;17.80;99.90;;;;;;4976162;28;20619;-68
2021/06/11 00:32:46;;;;;;;13.27;11.97;;;17.60;99.90;;;;;;4976251;28;20606;-68
2021/06/11 00:35:13;;;;;;;12.50;11.50;;;17.80;99.90;;;;;;4959127;28;20646;-66
2021/06/11 00:37:40;;;;;;;12.90;11.80;;;17.80;99.90;;;;;;4976189;28;20954;-66
2021/06/11 00:40:09;;;;;;;14.90;13.60;;;17.70;99.90;;;;;;4976007;28;20607;-66
2021/06/11 00:42:36;;;;;;;13.43;12.30;;;17.70;99.90;;;;;;4975987;28;20603;-66
2021/06/11 00:45:04;;;;;;;13.40;12.10;;;17.70;99.90;;;;;;4975890;28;20642;-68
2021/06/11 00:47:30;;;;;;;13.07;11.63;;;17.70;99.90;;;;;;4975778;28;20717;-68
2021/06/11 00:49:56;;;;;;;12.97;11.97;;;17.70;99.90;;;;;;4975797;28;20602;-69
2021/06/11 00:52:23;;;;;;;13.37;12.10;;;17.80;99.90;;;;;;4975689;28;20625;-69
2021/06/11 00:54:50;;;;;;;12.17;11.03;;;17.70;99.90;;;;;;4975517;28;20576;-68
2021/06/11 00:57:16;;;;;;;12.90;11.90;;;17.70;99.90;;;;;;4975738;28;20603;-68
2021/06/11 00:59:43;;;;;;;12.73;11.60;;;17.60;99.90;;;;;;4975667;28;20610;-68
2021/06/11 01:02:11;;;;;;;13.60;11.80;;;17.40;99.90;;;;;;4976071;28;20622;-68
2021/06/11 01:04:38;;;;;;;12.83;11.67;;;17.30;99.90;;;;;;4975253;28;20617;-68
2021/06/11 01:07:05;;;;;;;13.67;12.40;;;17.30;99.90;;;;;;4975588;28;20702;-68
2021/06/11 01:09:36;;;;;;;12.97;11.97;;;17.20;99.90;;;;;;4975145;28;20627;-68
2021/06/11 01:12:04;;;;;;;12.33;11.00;;;17.10;99.90;;;;;;4975133;28;20622;-68
2021/06/11 01:14:31;;;;;;;12.57;11.57;;;17.00;99.90;;;;;;4975446;28;21149;-68
2021/06/11 01:16:57;;;;;;;12.73;11.63;;;17.10;99.90;;;;;;4975317;28;20602;-68
2021/06/11 01:19:46;;;;;;;18.10;12.20;;;17.10;99.90;;;;;;4974372;28;20653;-68
2021/06/11 01:22:35;;;;;;;11.63;10.73;;;17.00;99.90;;;;;;4975542;28;20658;-68
2021/06/11 01:25:09;;;;;;;12.87;11.03;;;17.00;99.90;;;;;;4975388;28;20618;-68
2021/06/11 01:27:38;;;;;;;16.57;11.77;;;17.10;99.90;;;;;;4975191;28;20636;-68
2021/06/11 01:30:27;;;;;;;14.93;12.37;;;17.00;99.90;;;;;;4975082;28;20626;-68
2021/06/11 01:32:55;;;;;;;13.10;12.00;;;16.90;99.90;;;;;;4974851;28;20621;-68
2021/06/11 01:35:29;;;;;;;13.87;12.67;;;16.90;99.90;;;;;;4975156;28;20606;-68
2021/06/11 01:38:02;;;;;;;13.40;12.10;;;16.70;99.90;;;;;;4975098;28;20583;-68
2021/06/11 01:40:32;;;;;;;15.37;13.93;;;16.60;99.90;;;;;;4975014;28;20662;-68
2021/06/11 01:43:01;;;;;;;13.13;11.90;;;16.50;99.90;;;;;;4974174;28;21160;-66
2021/06/11 01:45:29;;;;;;;13.50;12.30;;;16.40;99.90;;;;;;4975042;28;20729;-66
2021/06/11 01:47:58;;;;;;;14.43;13.10;;;16.50;99.90;;;;;;4974620;28;20721;-66
2021/06/11 01:50:30;;;;;;;13.33;12.13;;;16.60;99.90;;;;;;4974786;28;20721;-66
2021/06/11 01:52:59;;;;;;;12.87;11.80;;;16.40;99.90;;;;;;4974918;28;20574;-66
2021/06/11 01:55:28;;;;;;;18.13;12.77;;;16.50;99.90;;;;;;4974812;28;20609;-66
2021/06/11 01:57:58;;;;;;;13.90;12.67;;;16.40;99.90;;;;;;4973575;28;20613;-66
2021/06/11 02:00:25;;;;;;;13.43;12.23;;;16.40;99.90;;;;;;4974696;28;20650;-66
2021/06/11 02:02:52;;;;;;;13.87;12.53;;;16.30;99.90;;;;;;4974776;28;20605;-66
2021/06/11 02:05:20;;;;;;;13.57;12.30;;;16.20;99.90;;;;;;4973842;28;20964;-66
2021/06/11 02:07:47;;;;;;;13.00;11.83;;;16.20;99.90;;;;;;4974101;28;20662;-66
2021/06/11 02:10:17;;;;;;;14.93;13.13;;;16.30;99.90;;;;;;4974258;28;20619;-66
2021/06/11 02:12:45;;;;;;;12.30;11.07;;;16.40;99.90;;;;;;4973080;28;20593;-66
2021/06/11 02:15:13;;;;;;;12.47;11.30;;;16.20;99.90;;;;;;4974580;28;20598;-66
2021/06/11 02:17:42;;;;;;;12.60;11.33;;;16.30;99.90;;;;;;4974600;28;20615;-66
2021/06/11 02:20:14;;;;;;;13.57;12.27;;;16.30;99.90;;;;;;4974582;28;20598;-66
2021/06/11 02:22:42;;;;;;;12.77;11.37;;;16.40;99.90;;;;;;4974594;28;21109;-67
2021/06/11 02:25:12;;;;;;;13.57;12.23;;;16.40;99.90;;;;;;4974485;28;20674;-67
2021/06/11 02:27:39;;;;;;;12.33;11.33;;;16.40;99.90;;;;;;4974262;28;20646;-67
2021/06/11 02:30:08;;;;;;;13.17;12.03;;;16.40;99.90;;;;;;4974245;28;20622;-66
2021/06/11 02:32:35;;;;;;;19.53;11.73;;;16.40;99.90;;;;;;4972773;28;20694;-66
2021/06/11 02:35:05;;;;;;;15.47;12.30;;;16.30;99.90;;;;;;4974249;28;21005;-67
2021/06/11 02:37:31;;;;;;;14.60;13.30;;;16.30;99.90;;;;;;4974680;28;20603;-66
2021/06/11 02:39:57;;;;;;;13.90;11.97;;;16.30;99.90;;;;;;4974130;28;20601;-66
2021/06/11 02:42:27;;;;;;;12.63;11.63;;;16.20;99.90;;;;;;4972707;28;20600;-67
2021/06/11 02:44:58;;;;;;;13.33;12.23;;;16.30;99.90;;;;;;4973769;28;21227;-66
2021/06/11 02:47:34;;;;;;;12.70;11.70;;;16.30;99.90;;;;;;4974260;28;20568;-67
2021/06/11 02:50:06;;;;;;;14.03;12.83;;;16.30;99.90;;;;;;4972724;28;21157;-67
2021/06/11 02:52:35;;;;;;;14.10;12.80;;;16.40;99.90;;;;;;4974385;28;20637;-66
2021/06/11 02:55:04;;;;;;;15.80;13.13;;;16.30;99.90;;;;;;4974199;28;20613;-71
2021/06/11 02:57:36;;;;;;;13.77;12.53;;;16.20;99.90;;;;;;4973891;28;20990;-67
2021/06/11 03:00:07;;;;;;;16.90;14.17;;;16.20;99.90;;;;;;4973724;28;20631;-66
2021/06/11 03:02:41;;;;;;;14.30;12.73;;;16.20;99.90;;;;;;4985095;28;20664;-67
2021/06/11 03:05:10;;;;;;;14.63;13.13;;;16.00;99.90;;;;;;4992979;28;20952;-66
2021/06/11 03:07:39;;;;;;;14.57;13.10;;;16.00;99.90;;;;;;4993098;28;20667;-67
2021/06/11 03:10:08;;;;;;;15.03;13.63;;;15.80;99.90;;;;;;4992955;28;20618;-67
2021/06/11 03:12:38;;;;;;;14.73;13.40;;;15.80;99.90;;;;;;4992991;28;20621;-67
2021/06/11 03:15:06;;;;;;;15.40;14.20;;;15.80;99.90;;;;;;4993014;28;21164;-67
2021/06/11 03:17:42;;;;;;;13.93;12.70;;;15.80;99.90;;;;;;4996475;28;20625;-67
2021/06/11 03:20:13;;;;;;;14.73;13.53;;;15.80;99.90;;;;;;4997123;28;20617;-67
2021/06/11 03:22:48;;;;;;;18.80;12.83;;;15.80;99.90;;;;;;4995732;28;20634;-67
2021/06/11 03:25:25;;;;;;;14.10;13.00;;;15.80;99.90;;;;;;4996948;28;20892;-67
2021/06/11 03:28:02;;;;;;;14.20;12.90;;;15.80;99.90;;;;;;4996833;28;21179;-67
2021/06/11 03:30:30;;;;;;;14.53;13.30;;;15.80;99.90;;;;;;4996789;28;20561;-67
2021/06/11 03:33:05;;;;;;;13.27;12.07;;;15.90;99.90;;;;;;4996735;28;20618;-66
2021/06/11 03:35:35;;;;;;;14.60;13.30;;;15.90;99.90;;;;;;4996687;28;21104;-67
2021/06/11 03:38:06;;;;;;;13.40;12.20;;;15.90;99.90;;;;;;4996824;28;20605;-67
2021/06/11 03:40:37;;;;;;;13.27;11.87;;;15.90;99.90;;;;;;4996542;28;20672;-66
2021/06/11 03:43:04;;;;;;;15.00;11.37;;;15.90;99.90;;;;;;4996496;28;20572;-66
2021/06/11 03:45:31;;;;;;;15.00;13.03;;;15.70;99.90;;;;;;4996530;28;20652;-66
2021/06/11 03:48:01;;;;;;;13.07;12.07;;;15.70;99.90;;;;;;4996486;28;20668;-66
2021/06/11 03:50:28;;;;;;;17.17;15.43;;;15.50;99.90;;;;;;4996604;28;20624;-67
2021/06/11 03:52:59;;;;;;;15.37;13.90;;;15.30;99.90;;;;;;4996264;28;20606;-66
2021/06/11 03:55:30;;;;;;;16.40;14.90;;;15.20;99.90;;;;;;4996816;28;20618;-67
2021/06/11 03:58:12;;;;;;;16.00;14.47;;;15.20;99.90;;;;;;4996337;28;20725;-67
2021/06/11 04:00:42;;;;;;;15.63;14.03;;;15.20;99.90;;;;;;4995117;28;20626;-67
2021/06/11 04:03:08;;;;;;;15.40;13.90;;;15.20;99.90;;;;;;4996101;28;20577;-67
2021/06/11 04:05:36;;;;;;;15.27;13.77;;;15.30;99.90;;;;;;4996392;28;21147;-67
2021/06/11 04:08:06;;;;;;;14.87;13.67;;;15.20;99.90;;;;;;4995967;28;20633;-67
2021/06/11 04:10:35;;;;;;;16.27;14.10;;;15.30;99.90;;;;;;4995977;28;20561;-67
2021/06/11 04:13:18;;;;;;;15.40;14.00;;;15.50;99.90;;;;;;4995762;28;20970;-68
2021/06/11 04:15:50;;;;;;;14.73;13.43;;;15.70;99.90;;;;;;4996293;28;21115;-67
2021/06/11 04:18:28;;;;;;;14.50;13.10;;;15.80;99.90;;;;;;4995923;28;20569;-67
2021/06/11 04:20:59;;;;;;;14.13;12.57;;;15.80;99.90;;;;;;4995428;28;20616;-67
2021/06/11 04:23:27;;;;;;;14.10;12.90;;;15.80;99.90;;;;;;4995960;28;20956;-67
2021/06/11 04:25:57;;;;;;;15.33;12.80;;;15.80;99.90;;;;;;4995747;28;21159;-67
2021/06/11 04:28:25;;;;;;;14.40;13.07;;;15.90;99.90;;;;;;4994927;28;20647;-67
2021/06/11 04:30:52;;;;;;;15.03;12.90;;;16.00;99.90;;;;;;4995821;28;20629;-67
2021/06/11 04:33:23;;;;;;;14.17;12.67;;;16.10;99.90;;;;;;4995575;28;20576;-67
2021/06/11 04:35:50;;;;;;;12.93;11.30;;;16.10;99.90;;;;;;4995712;28;20566;-67
2021/06/11 04:38:17;;;;;;;12.60;11.60;;;16.20;99.90;;;;;;4995518;28;20606;-67
2021/06/11 04:40:44;;;;;;;12.90;11.80;;;16.20;99.90;;;;;;4995470;28;20646;-67
2021/06/11 04:43:11;;;;;;;15.67;12.10;;;16.10;99.90;;;;;;4995777;28;21133;-67
2021/06/11 04:45:38;;;;;;;13.33;11.77;;;16.00;99.90;;;;;;4995405;28;21200;-67
2021/06/11 04:48:06;;;;;;;12.47;11.47;;;16.20;99.90;;;;;;4995441;28;20652;-67
2021/06/11 04:50:33;;;;;;;13.13;11.90;;;16.30;99.90;;;;;;4995313;28;20594;-67
2021/06/11 04:53:00;;;;;;;12.40;11.20;;;16.40;99.90;;;;;;4995569;28;20631;-67
2021/06/11 04:55:26;;;;;;;14.20;13.00;;;16.40;99.90;;;;;;4980628;28;20684;-67
2021/06/11 04:57:54;;;;;;;13.57;12.47;;;16.70;99.90;;;;;;4994682;28;20991;-67
2021/06/11 05:00:21;;;;;;;11.97;10.87;;;16.70;99.90;;;;;;4994474;28;20736;-67
2021/06/11 05:02:47;;;;;;;12.37;11.33;;;16.80;99.90;;;;;;4994704;28;20716;-67
2021/06/11 05:05:14;;;;;;;11.40;10.60;;;17.00;99.90;;;;;;4995122;28;20621;-67
2021/06/11 05:07:40;;;;;;;11.73;10.73;;;17.10;99.90;;;;;;4992959;28;20618;-67
2021/06/11 05:10:07;;;;;;;12.80;11.80;;;17.00;99.90;;;;;;4994691;28;20982;-67
2021/06/11 05:12:35;;;;;;;13.80;11.10;;;17.20;99.90;;;;;;4992070;28;20699;-67
2021/06/11 05:15:03;;;;;;;18.60;10.30;;;17.40;99.90;;;;;;4975487;28;20598;-68
2021/06/11 05:17:30;;;;;;;13.63;10.17;;;17.60;99.90;;;;;;4975468;28;20602;-67
2021/06/11 05:19:56;;;;;;;13.30;11.60;;;17.70;99.90;;;;;;4974844;28;20988;-68
2021/06/11 05:22:22;;;;;;;11.93;10.73;;;17.90;99.90;;;;;;4975024;28;20635;-68
2021/06/11 05:24:49;;;;;;;10.97;10.03;;;18.10;99.90;;;;;;4975167;28;20619;-68
2021/06/11 05:27:15;;;;;;;11.87;10.87;;;18.20;99.90;;;;;;4975212;28;21153;-68
2021/06/11 05:29:42;;;;;;;11.60;10.60;;;18.30;99.90;;;;;;4974572;28;20659;-68
2021/06/11 05:32:09;;;;;;;12.00;10.90;;;18.40;99.90;;;;;;4975288;28;20953;-68
2021/06/11 05:34:35;;;;;;;11.50;10.50;;;18.50;99.90;;;;;;4974566;28;20633;-68
2021/06/11 05:37:02;;;;;;;11.77;10.63;;;18.60;99.90;;;;;;4975053;28;20606;-68
2021/06/11 05:39:28;;;;;;;13.03;11.20;;;18.70;99.90;;;;;;4975427;28;21099;-68
2021/06/11 05:41:55;;;;;;;11.20;10.30;;;18.80;99.90;;;;;;4974826;28;21004;-68
2021/06/11 05:44:21;;;;;;;13.07;11.03;;;18.80;99.90;;;;;;4974603;28;21204;-68
2021/06/11 05:46:47;;;;;;;14.53;11.03;;;19.10;99.90;;;;;;4973766;28;20603;-68
2021/06/11 05:49:14;;;;;;;11.60;10.33;;;19.10;99.90;;;;;;4974719;28;20649;-68
2021/06/11 05:51:40;;;;;;;11.93;10.80;;;19.20;99.90;;;;;;4975193;28;20599;-68
2021/06/11 05:54:07;;;;;;;12.70;11.40;;;19.20;99.90;;;;;;4974584;28;20610;-68
2021/06/11 05:56:33;;;;;;;12.03;10.87;;;19.20;95.30;;;;;;4974535;28;20630;-68
2021/06/11 05:58:59;;;;;;;12.47;11.27;;;19.30;43.20;;;;;;4974836;28;20594;-68
2021/06/11 06:01:26;;;;;;;13.53;12.10;;;19.30;33.00;;;;;;4974714;28;21156;-68
2021/06/11 06:03:52;;;;;;;10.83;10.03;;;19.50;35.30;;;;;;4974723;28;20610;-68
2021/06/11 06:06:18;;;;;;;11.87;10.87;;;19.60;19.00;;;;;;4972918;28;20619;-68
2021/06/11 06:08:45;;;;;;;12.80;11.60;;;19.60;12.20;;;;;;4974635;28;20649;-77
2021/06/11 06:11:13;;;;;;;11.87;10.63;;;19.60;7.70;;;;;;4975074;28;20618;-72
2021/06/11 06:13:39;;;;;;;11.60;10.60;;;19.70;1.00;;;;;;4973508;28;20607;-73
2021/06/11 06:16:05;;;;;;;12.27;10.03;;;20.00;1.00;;;;;;4957412;28;21009;-74
2021/06/11 06:18:32;;;;;;;12.03;11.03;;;20.00;1.00;;;;;;4974509;28;20602;-73
2021/06/11 06:20:59;;;;;;;12.47;11.37;;;19.90;1.00;;;;;;4957447;28;20629;-73
2021/06/11 06:23:25;;;;;;;13.63;12.23;;;20.00;1.00;;;;;;4972941;28;20626;-73
2021/06/11 06:25:52;;;;;;;12.73;11.60;;;19.80;1.00;;;;;;4941465;28;20729;-74
2021/06/11 06:28:18;;;;;;;13.87;12.47;;;20.10;1.00;;;;;;4972891;28;20693;-72
2021/06/11 06:30:44;;;;;;;12.53;11.43;;;20.00;1.00;;;;;;4974174;28;20689;-72
2021/06/11 06:33:11;;;;;;;13.70;12.60;;;20.00;1.00;;;;;;4974480;28;20613;-67
2021/06/11 06:35:38;;;;;;;12.40;11.30;;;20.30;1.00;;;;;;4974208;28;20709;-66
2021/06/11 06:38:04;;;;;;;15.87;14.20;;;20.30;1.00;;;;;;4972855;28;20622;-67
2021/06/11 06:40:31;;;;;;;14.53;12.40;;;20.50;1.00;;;;;;4973657;28;20637;-67
2021/06/11 06:42:57;;;;;;;13.27;11.20;;;20.80;1.00;;;;;;4974175;28;20613;-67
2021/06/11 06:45:23;;;;;;;12.27;11.17;;;20.90;1.00;;;;;;4973093;28;20665;-69
2021/06/11 06:47:50;;;;;;;12.33;11.30;;;21.10;1.00;;;;;;4974290;28;21033;-67
2021/06/11 06:50:18;;;;;;;13.53;11.97;;;21.20;1.00;;;;;;4974383;28;21206;-67
2021/06/11 06:52:45;;;;;;;12.70;11.70;;;21.50;1.00;;;;;;4960596;28;20654;-67
2021/06/11 06:55:13;;;;;;;11.93;10.90;;;21.20;1.00;;;;;;4977604;28;20713;-67
2021/06/11 06:57:39;;;;;;;12.00;11.00;;;21.30;1.00;;;;;;4977920;28;20587;-67
2021/06/11 07:00:07;;;;;;;13.43;11.27;;;21.40;1.00;;;;;;4977850;28;21144;-67
2021/06/11 07:02:34;;;;;;;12.13;11.13;;;21.50;1.00;;;;;;4976634;28;20693;-67
2021/06/11 07:05:01;;;;;;;11.87;10.97;;;21.60;1.00;;;;;;4977367;28;20633;-67
2021/06/11 07:07:27;;;;;;;11.93;10.73;;;21.90;1.00;;;;;;4977803;28;20605;-67
2021/06/11 07:09:54;;;;;;;13.40;10.50;;;21.90;1.00;;;;;;4977578;28;20642;-67
2021/06/11 07:12:20;;;;;;;12.53;11.53;;;22.20;1.00;;;;;;4977788;28;20609;-67
2021/06/11 07:14:46;;;;;;;11.67;10.77;;;22.50;1.00;;;;;;4977857;28;20633;-67
2021/06/11 07:17:12;;;;;;;12.30;11.00;;;22.50;1.00;;;;;;4977667;28;20641;-68
2021/06/11 07:19:39;;;;;;;14.70;12.93;;;22.30;1.00;;;;;;4977793;28;20612;-67
2021/06/11 07:22:07;;;;;;;12.60;11.33;;;22.20;1.00;;;;;;4977610;28;20607;-68
2021/06/11 07:24:36;;;;;;;18.80;11.73;;;22.40;1.00;;;;;;4977667;28;20626;-67
2021/06/11 07:27:02;;;;;;;10.30;9.20;;;22.60;1.00;;;;;;4977298;28;20590;-66
2021/06/11 07:29:29;;;;;;;10.77;9.90;;;22.80;1.00;;;;;;4977412;28;20649;-67
2021/06/11 07:31:55;;;;;;;11.53;9.33;;;23.30;1.00;;;;;;4977545;28;20598;-66
2021/06/11 07:34:22;;;;;;;10.40;7.63;;;23.30;1.00;;;;;;4977238;28;20595;-68
2021/06/11 07:36:48;;;;;;;9.33;8.53;;;23.40;1.00;;;;;;4976773;28;20641;-67
2021/06/11 07:39:17;;;;;;;10.37;9.47;;;23.40;1.00;;;;;;4977055;28;20964;-67
2021/06/11 07:41:44;;;;;;;9.63;8.63;;;23.60;1.00;;;;;;4976233;28;20658;-67
2021/06/11 07:44:10;;;;;;;8.40;7.70;;;23.80;1.00;;;;;;4976996;28;20741;-67
2021/06/11 07:46:37;;;;;;;13.53;8.30;;;23.70;1.00;;;;;;4976960;28;20611;-67
2021/06/11 07:49:06;;;;;;;7.13;6.63;;;23.70;1.00;;;;;;4976413;28;20659;-67
2021/06/11 07:51:32;;;;;;;8.33;7.17;;;24.00;1.00;;;;;;4976747;28;20606;-67
2021/06/11 07:53:59;;;;;;;8.20;7.60;;;23.90;1.00;;;;;;4976841;28;20602;-67
2021/06/11 07:56:25;;;;;;;8.73;7.63;;;23.80;1.00;;;;;;4975519;28;20957;-67
2021/06/11 07:58:51;;;;;;;12.03;10.83;;;24.00;1.00;;;;;;4976595;28;21173;-67
2021/06/11 08:01:17;;;;;;;8.17;6.93;;;23.80;1.00;;;;;;4976766;28;20698;-67
2021/06/11 08:03:44;;;;;;;9.80;9.00;;;23.60;1.00;;;;;;4975487;28;20626;-67
2021/06/11 08:06:10;;;;;;;9.77;8.63;;;23.60;1.00;;;;;;4976619;28;20625;-67
2021/06/11 08:08:37;;;;;;;11.17;10.20;;;;;;;;;;4976694;28;20634;-67
2021/06/11 08:11:03;;;;;;;11.33;9.97;;;23.20;1.00;;;;;;4976687;28;20591;-68
2021/06/11 08:13:30;;;;;;;11.00;9.90;;;;;;;;;;4976502;28;20614;-68
2021/06/11 08:15:57;;;;;;;9.47;8.53;;;;;;;;;;4976609;28;20603;-67
2021/06/11 08:18:23;;;;;;;9.70;8.90;;;;;;;;;;4976464;28;20595;-67
2021/06/11 08:20:50;;;;;;;12.00;9.60;;;;;;;;;;4975044;28;20951;-67
2021/06/11 08:23:16;;;;;;;12.40;11.30;;;;;;;;;;4976360;28;20973;-67
2021/06/11 08:25:43;;;;;;;12.37;10.10;;;;;;;;;;4976263;28;20605;-67
2021/06/11 08:28:11;;;;;;;10.50;9.50;;;;;;;;;;4976334;28;21142;-67
2021/06/11 08:30:37;;;;;;;10.47;9.40;;;;;;;;;;4975768;28;20655;-67
2021/06/11 08:33:06;;;;;;;11.83;8.83;;;;;;;;;;4976465;28;20619;-67
2021/06/11 08:35:33;;;;;;;9.80;8.90;;;;;;;;;;4976188;28;20630;-67
2021/06/11 08:38:00;;;;;;;10.27;9.23;;;;;;;;;;4976089;28;21135;-67
2021/06/11 08:40:27;;;;;;;11.93;8.27;;;;;;;;;;4975896;28;20626;-67
2021/06/11 08:42:54;;;;;;;11.13;10.20;;;;;;;;;;4975944;28;20622;-68
2021/06/11 08:45:21;;;;;;;11.10;8.90;;;;;;;;;;4975978;28;20654;-68
2021/06/11 08:47:49;;;;;;;10.07;9.07;;;;;;;;;;4975664;28;20715;-68
2021/06/11 08:50:19;;;;;;;9.40;8.53;;;;;;;;;;4975304;28;20676;-67
2021/06/11 08:52:46;;;;;;;9.27;8.47;;;;;;;;;;4975614;28;20619;-67
2021/06/11 08:55:13;;;;;;;9.23;8.53;;;;;;;;;;4976056;28;20612;-67
2021/06/11 08:57:40;;;;;;;9.80;8.80;;;;;;;;;;4975610;28;20965;-67
2021/06/11 09:00:09;;;;;;;8.73;8.03;;;;;;;;;;4975647;28;20602;-67
2021/06/11 09:02:35;;;;;;;8.80;8.20;;;;;;;;;;4975653;28;20666;-67
2021/06/11 09:05:04;;;;;;;10.83;9.10;;;;;;;;;;4975601;28;20606;-67
2021/06/11 09:07:33;;;;;;;10.43;8.27;;;;;;;;;;4975381;28;20619;-67
2021/06/11 09:10:04;;;;;;;10.10;8.73;;;;;;;;;;4975011;28;21212;-67
2021/06/11 09:12:32;;;;;;;9.47;8.57;;;;;;;;;;4973921;28;20614;-67
2021/06/11 09:14:59;;;;;;;9.50;8.53;;;;;;;;;;4975179;28;20617;-67
2021/06/11 09:17:36;;;;;;;9.77;8.87;;;;;;;;;;4975467;28;20641;-67
2021/06/11 09:20:04;;;;;;;8.40;7.80;;;;;;;;;;4975186;28;21094;-68
2021/06/11 09:22:38;;;;;;;9.17;8.23;;;;;;;;;;4975285;28;20590;-69
2021/06/11 09:25:28;;;;;;;9.33;8.67;;;;;;;;;;4975129;28;20606;-68
2021/06/11 09:27:59;;;;;;;11.50;8.83;;;;;;;;;;4965385;28;20669;-67
2021/06/11 09:30:36;;;;;;;13.97;9.00;;;26.50;99.90;;;;;;4974990;28;20964;-68
2021/06/11 09:33:05;;;;;;;9.87;8.90;;;26.90;99.90;;;;;;4975155;28;20565;-67
2021/06/11 09:35:37;;;;;;;11.47;9.13;;;;;;;;;;4974810;28;20726;-67
2021/06/11 09:38:08;;;;;;;11.17;8.40;;;;;;;;;;4973403;28;20619;-67
2021/06/11 09:40:35;;;;;;;9.00;8.40;;;;;;;;;;4974316;28;20664;-67
2021/06/11 09:43:03;;;;;;;9.47;8.60;;;26.80;99.90;;;;;;4974468;28;20626;-67
2021/06/11 09:45:30;;;;;;;9.40;8.17;;;27.10;99.90;;;;;;4974843;28;20654;-67
2021/06/11 09:47:57;;;;;;;9.53;8.60;;;27.30;99.90;;;;;;4974791;28;20619;-67
2021/06/11 09:50:37;;;;;;;9.43;8.70;;;27.40;99.90;;;;;;4974778;28;20645;-68
2021/06/11 09:53:11;;;;;;;9.23;8.43;;;27.40;99.90;;;;;;4975215;28;20625;-68
2021/06/11 09:55:42;;;;;;;8.97;8.17;;;27.60;99.90;;;;;;4973526;28;20619;-67
2021/06/11 09:58:19;;;;;;;12.80;9.27;;;27.50;99.90;;;;;;4974464;28;20615;-67
2021/06/11 10:00:55;;;;;;;8.50;7.77;;;27.40;99.90;;;;;;4974464;28;20630;-67
2021/06/11 10:03:30;;;;;;;12.37;10.03;;;27.40;99.90;;;;;;4974850;28;20626;-68
2021/06/11 10:06:02;;;;;;;8.10;7.43;;;27.30;99.90;;;;;;4974587;28;20647;-67
2021/06/11 10:08:30;;;;;;;9.37;8.50;;;27.10;99.90;;;;;;4974669;28;20567;-67
2021/06/11 10:10:58;;;;;;;9.57;8.63;;;27.30;99.90;;;;;;4973502;28;20642;-67
2021/06/11 10:13:25;;;;;;;10.70;8.17;;;26.90;99.90;;;;;;4974568;28;21176;-67
2021/06/11 10:15:54;;;;;;;9.80;7.37;;;27.20;99.90;;;;;;4974459;28;20636;-67
2021/06/11 10:18:21;;;;;;;9.50;7.70;;;27.20;99.90;;;;;;4974619;28;20595;-67
2021/06/11 10:20:49;;;;;;;10.07;8.07;;;27.10;99.90;;;;;;4974599;28;20599;-67
2021/06/11 10:23:21;;;;;;;8.13;7.63;;;27.50;99.90;;;;;;4972976;28;20638;-67
2021/06/11 10:25:53;;;;;;;8.23;7.40;;;27.60;99.90;;;;;;4974134;28;20606;-67
2021/06/11 10:28:26;;;;;;;7.90;7.40;;;27.40;99.90;;;;;;4974362;28;20626;-67
2021/06/11 10:30:57;;;;;;;7.87;7.27;;;27.40;99.90;;;;;;4974377;28;20606;-67
2021/06/11 10:33:46;;;;;;;9.20;7.73;;;28.10;99.90;;;;;;4974269;28;20613;-67
2021/06/11 10:36:25;;;;;;;8.27;7.57;;;28.80;99.90;;;;;;4964250;28;20637;-67
2021/06/11 10:38:53;;;;;;;7.50;7.03;;;28.90;99.90;;;;;;4974289;28;20618;-67
2021/06/11 10:41:22;;;;;;;7.90;7.33;;;28.90;99.90;;;;;;4972582;28;20647;-67
2021/06/11 10:43:49;;;;;;;7.70;7.20;;;29.00;99.90;;;;;;4974443;28;21089;-67
2021/06/11 10:46:29;;;;;;;7.10;6.60;;;28.90;99.90;;;;;;4974409;28;20559;-68
2021/06/11 10:48:56;;;;;;;6.60;6.10;;;29.10;99.90;;;;;;4974123;28;20964;-68
2021/06/11 10:51:53;;;;;;;7.43;6.83;;;29.20;99.90;;;;;;4974185;28;21146;-68
2021/06/11 10:54:19;;;;;;;8.20;5.00;;;29.00;99.90;;;;;;4974294;28;20559;-68
2021/06/11 10:57:08;;;;;;;5.47;4.97;;;29.10;99.90;;;;;;4973723;28;20627;-68
2021/06/11 10:59:39;;;;;;;5.70;5.20;;;29.60;99.90;;;;;;4974317;28;20634;-68
2021/06/11 11:02:07;;;;;;;5.00;4.70;;;29.80;99.90;;;;;;4974786;28;20630;-66
2021/06/11 11:04:36;;;;;;;5.60;5.30;;;29.70;99.90;;;;;;4973820;28;20598;-66
2021/06/11 11:07:23;;;;;;;5.13;4.60;;;29.80;99.90;;;;;;4973962;28;20634;-66
2021/06/11 11:09:57;;;;;;;4.50;4.20;;;29.40;99.90;;;;;;4974122;28;21189;-66
2021/06/11 11:12:30;;;;;;;8.03;4.77;;;29.70;99.90;;;;;;4973900;28;20614;-66
2021/06/11 11:14:59;;;;;;;5.03;4.67;;;29.20;99.90;;;;;;4974362;28;20619;-66
2021/06/11 11:17:26;;;;;;;8.13;5.70;;;29.60;99.90;;;;;;4973636;28;20623;-67
2021/06/11 11:19:59;;;;;;;5.93;5.53;;;29.50;99.90;;;;;;4974214;28;20992;-67
2021/06/11 11:22:32;;;;;;;6.23;5.73;;;29.50;99.90;;;;;;4973918;28;20593;-67
2021/06/11 11:25:03;;;;;;;5.90;5.47;;;29.80;99.90;;;;;;4972728;28;20627;-67
2021/06/11 11:27:30;;;;;;;7.80;5.80;;;30.50;99.90;;;;;;4973846;28;20567;-67
2021/06/11 11:29:57;;;;;;;6.13;5.63;;;;;;;;;;4973463;28;20669;-67
2021/06/11 11:32:24;;;;;;;6.67;6.17;;;31.10;99.90;;;;;;4973776;28;21020;-67
2021/06/11 11:34:51;;;;;;;5.77;5.47;;;31.20;99.90;;;;;;4972755;28;20930;-66
2021/06/11 11:37:18;;;;;;;4.93;4.63;;;;;;;;;;4975198;28;20618;-68
2021/06/11 11:39:46;;;;;;;5.80;5.30;;;31.80;99.90;;;;;;4978047;28;21016;-66
2021/06/11 11:42:13;;;;;;;5.77;5.27;;;;;;;;;;4977093;28;20662;-67
2021/06/11 11:44:40;;;;;;;9.70;5.70;;;;;;;;;;4977038;28;21031;-67
2021/06/11 11:47:07;;;;;;;5.43;4.93;;;;;;;;;;4977187;28;20677;-68
2021/06/11 11:49:34;;;;;;;8.50;5.00;;;;;;;;;;4976836;28;21189;-67
2021/06/11 11:52:01;;;;;;;5.47;5.17;;;32.00;99.90;;;;;;4988315;28;20981;-67
2021/06/11 11:54:31;;;;;;;5.83;5.43;;;;;;;;;;4996020;28;20622;-68
2021/06/11 11:56:58;;;;;;;5.37;4.97;;;;;;;;;;4995519;28;20618;-68
2021/06/11 11:59:25;;;;;;;5.50;5.10;;;;;;;;;;4992939;28;21158;-65
2021/06/11 12:01:51;;;;;;;6.10;5.70;;;;;;;;;;4985279;28;20625;-65
2021/06/11 12:04:18;;;;;;;5.30;4.90;;;;;;;;;;4995584;28;20716;-67
2021/06/11 12:06:45;;;;;;;5.97;5.57;;;;;;;;;;4995868;28;20636;-66
2021/06/11 12:09:12;;;;;;;5.73;5.33;;;;;;;;;;4995471;28;20625;-66
2021/06/11 12:11:39;;;;;;;5.90;5.27;;;;;;;;;;4982241;28;20610;-66
2021/06/11 12:14:06;;;;;;;5.93;5.43;;;;;;;;;;4994002;28;20633;-66
2021/06/11 12:16:33;;;;;;;6.93;5.70;;;;;;;;;;4995281;28;20614;-66
2021/06/11 12:19:00;;;;;;;5.90;5.50;;;;;;;;;;4976679;28;20606;-67
2021/06/11 12:21:27;;;;;;;6.20;5.70;;;;;;;;;;4976021;28;20634;-67
2021/06/11 12:23:53;;;;;;;6.47;6.10;;;;;;;;;;4974995;28;20622;-65
2021/06/11 12:26:20;;;;;;;5.57;4.97;;;;;;;;;;4976595;28;20599;-65
2021/06/11 12:28:47;;;;;;;5.60;5.30;;;;;;;;;;4976331;28;20611;-65
2021/06/11 12:31:13;;;;;;;8.77;5.10;;;;;;;;;;4976252;28;20649;-66
2021/06/11 12:33:40;;;;;;;5.57;5.13;;;;;;;;;;4976266;28;20602;-66
2021/06/11 12:36:07;;;;;;;6.17;5.60;;;;;;;;;;4976077;28;20649;-66
2021/06/11 12:38:34;;;;;;;5.80;5.03;;;;;;;;;;4976072;28;20606;-66
2021/06/11 12:41:00;;;;;;;8.23;4.97;;;;;;;;;;4975936;28;21198;-66
2021/06/11 12:46:22;;;;;;;5.60;5.17;;;;;;;;;;4955672;28;20623;-66
2021/06/11 12:48:49;;;;;;;5.20;4.90;;;;;;;;;;4973832;28;20626;-66
2021/06/11 12:51:16;;;;;;;6.33;5.60;;;;;;;;;;4976027;28;20658;-66
2021/06/11 12:53:42;;;;;;;6.43;5.50;;;;;;;;;;4975832;28;20606;-66
2021/06/11 12:56:09;;;;;;;6.00;5.60;;;;;;;;;;4975745;28;20972;-66
2021/06/11 12:58:36;;;;;;;6.37;5.77;;;;;;;;;;4975579;28;21175;-66
2021/06/11 13:01:03;;;;;;;5.97;5.57;;;;;;;;;;4974818;28;20713;-67
2021/06/11 13:03:30;;;;;;;7.00;6.23;;;;;;;;;;4974555;28;20595;-65
2021/06/11 13:05:56;;;;;;;6.70;5.77;;;;;;;;;;4974688;28;20693;-67
2021/06/11 13:08:23;;;;;;;6.53;5.93;;;;;;;;;;4975638;28;21161;-67